createdAt,value
2023-02-17T00:01:00.328Z,9.3
2023-02-17T00:01:59.921Z,9.3
2023-02-17T00:03:00.513Z,9.3
2023-02-17T00:04:00.282Z,9.3
2023-02-17T00:04:59.745Z,9.3
2023-02-17T00:06:00.331Z,9.3
2023-02-17T00:06:59.951Z,9.4
2023-02-17T00:08:00.533Z,9.3
2023-02-17T00:09:00.136Z,9.3
2023-02-17T00:09:59.820Z,9.4
2023-02-17T00:11:00.306Z,9.4
2023-02-17T00:11:59.917Z,9.4
2023-02-17T00:13:00.485Z,9.4
2023-02-17T00:14:00.085Z,9.4
2023-02-17T00:14:59.689Z,9.4
2023-02-17T00:16:00.347Z,9.3
2023-02-17T00:16:59.927Z,9.4
2023-02-17T00:18:00.479Z,9.4
2023-02-17T00:19:00.113Z,9.5
2023-02-17T00:19:59.751Z,9.5
2023-02-17T00:21:00.289Z,9.4
2023-02-17T00:21:59.882Z,9.4
2023-02-17T00:23:00.516Z,9.5
2023-02-17T00:24:00.200Z,9.4
2023-02-17T00:24:59.690Z,9.5
2023-02-17T00:26:00.279Z,9.5
2023-02-17T00:26:59.873Z,9.5
2023-02-17T00:28:00.455Z,9.4
2023-02-17T00:29:00.117Z,9.4
2023-02-17T00:29:59.664Z,9.4
2023-02-17T00:31:00.285Z,9.4
2023-02-17T00:31:59.971Z,9.4
2023-02-17T00:33:00.444Z,9.5
2023-02-17T00:34:00.058Z,9.4
2023-02-17T00:34:59.608Z,9.5
2023-02-17T00:36:00.210Z,9.5
2023-02-17T00:36:59.807Z,9.5
2023-02-17T00:38:00.410Z,9.5
2023-02-17T00:39:00.058Z,9.5
2023-02-17T00:39:59.596Z,9.6
2023-02-17T00:41:00.165Z,9.6
2023-02-17T00:41:59.756Z,9.6
2023-02-17T00:43:00.341Z,9.6
2023-02-17T00:43:59.936Z,9.6
2023-02-17T00:45:00.561Z,9.6
2023-02-17T00:46:00.168Z,9.6
2023-02-17T00:46:59.730Z,9.6
2023-02-17T00:48:00.299Z,9.6
2023-02-17T00:48:59.885Z,9.6
2023-02-17T00:50:00.484Z,9.6
2023-02-17T00:51:00.072Z,9.6
2023-02-17T00:51:59.701Z,9.6
2023-02-17T00:53:00.235Z,9.7
2023-02-17T00:53:59.826Z,9.7
2023-02-17T00:55:00.403Z,9.8
2023-02-17T00:55:59.991Z,9.8
2023-02-17T00:56:59.631Z,9.7
2023-02-17T00:58:00.158Z,9.8
2023-02-17T00:58:59.757Z,9.8
2023-02-17T01:00:00.334Z,9.8
2023-02-17T01:00:59.925Z,9.8
2023-02-17T01:02:00.588Z,9.8
2023-02-17T01:03:00.199Z,9.8
2023-02-17T01:03:59.728Z,9.8
2023-02-17T01:05:00.369Z,9.8
2023-02-17T01:05:59.961Z,9.8
2023-02-17T01:07:00.558Z,9.7
2023-02-17T01:08:00.204Z,9.7
2023-02-17T01:08:59.778Z,9.7
2023-02-17T01:10:00.345Z,9.7
2023-02-17T01:10:59.983Z,9.8
2023-02-17T01:12:00.517Z,9.8
2023-02-17T01:13:00.119Z,9.8
2023-02-17T01:13:59.736Z,9.8
2023-02-17T01:15:00.285Z,9.8
2023-02-17T01:15:59.937Z,9.8
2023-02-17T01:17:00.449Z,9.7
2023-02-17T01:18:00.068Z,9.7
2023-02-17T01:18:59.657Z,9.7
2023-02-17T01:20:00.216Z,9.6
2023-02-17T01:20:59.817Z,9.6
2023-02-17T01:22:00.387Z,9.6
2023-02-17T01:22:59.976Z,9.6
2023-02-17T01:23:59.615Z,9.6
2023-02-17T01:25:00.169Z,9.5
2023-02-17T01:25:59.812Z,9.5
2023-02-17T01:27:00.381Z,9.5
2023-02-17T01:27:59.972Z,9.5
2023-02-17T01:29:00.562Z,9.5
2023-02-17T01:30:00.242Z,9.5
2023-02-17T01:30:59.862Z,9.5
2023-02-17T01:32:00.408Z,9.5
2023-02-17T01:33:00.015Z,9.5
2023-02-17T01:33:59.602Z,9.5
2023-02-17T01:35:00.184Z,9.5
2023-02-17T01:35:59.792Z,9.6
2023-02-17T01:37:00.356Z,9.6
2023-02-17T01:37:59.950Z,9.5
2023-02-17T01:39:00.521Z,9.6
2023-02-17T01:40:00.142Z,9.6
2023-02-17T01:40:59.760Z,9.5
2023-02-17T01:42:00.319Z,9.5
2023-02-17T01:42:59.908Z,9.5
2023-02-17T01:44:00.480Z,9.6
2023-02-17T01:45:00.100Z,9.6
2023-02-17T01:45:59.719Z,9.6
2023-02-17T01:47:00.304Z,9.7
2023-02-17T01:47:59.907Z,9.6
2023-02-17T01:49:00.475Z,9.7
2023-02-17T01:50:00.082Z,9.7
2023-02-17T01:50:59.671Z,9.7
2023-02-17T01:52:00.276Z,9.6
2023-02-17T01:52:59.863Z,9.6
2023-02-17T01:54:00.454Z,9.6
2023-02-17T01:55:00.057Z,9.5
2023-02-17T01:55:59.645Z,9.5
2023-02-17T01:57:00.193Z,9.5
2023-02-17T01:57:59.785Z,9.5
2023-02-17T01:59:00.377Z,9.5
2023-02-17T01:59:59.968Z,9.5
2023-02-17T02:01:00.535Z,9.5
2023-02-17T02:02:00.312Z,9.4
2023-02-17T02:02:59.810Z,9.4
2023-02-17T02:04:00.359Z,9.5
2023-02-17T02:04:59.949Z,9.5
2023-02-17T02:06:00.541Z,9.3
2023-02-17T02:07:00.133Z,9.4
2023-02-17T02:07:59.725Z,9.4
2023-02-17T02:09:00.313Z,9.4
2023-02-17T02:09:59.916Z,9.4
2023-02-17T02:11:00.546Z,9.4
2023-02-17T02:12:00.172Z,9.4
2023-02-17T02:12:59.726Z,9.4
2023-02-17T02:14:00.325Z,9.5
2023-02-17T02:14:59.925Z,9.5
2023-02-17T02:16:00.511Z,9.5
2023-02-17T02:17:00.116Z,9.5
2023-02-17T02:17:59.701Z,9.6
2023-02-17T02:19:00.303Z,9.6
2023-02-17T02:19:59.891Z,9.6
2023-02-17T02:21:00.476Z,9.6
2023-02-17T02:22:00.102Z,9.6
2023-02-17T02:22:59.706Z,9.7
2023-02-17T02:24:00.300Z,9.6
2023-02-17T02:24:59.893Z,9.6
2023-02-17T02:26:00.458Z,9.6
2023-02-17T02:27:00.081Z,9.6
2023-02-17T02:27:59.647Z,9.6
2023-02-17T02:29:00.220Z,9.6
2023-02-17T02:29:59.849Z,9.6
2023-02-17T02:31:00.509Z,9.6
2023-02-17T02:32:00.086Z,9.6
2023-02-17T02:32:59.612Z,9.6
2023-02-17T02:34:00.229Z,9.6
2023-02-17T02:34:59.836Z,9.6
2023-02-17T02:36:00.389Z,9.6
2023-02-17T02:36:59.977Z,9.6
2023-02-17T02:37:59.566Z,9.5
2023-02-17T02:39:00.160Z,9.6
2023-02-17T02:39:59.751Z,9.5
2023-02-17T02:41:00.320Z,9.6
2023-02-17T02:41:59.913Z,9.5
2023-02-17T02:43:00.486Z,9.5
2023-02-17T02:44:00.121Z,9.5
2023-02-17T02:44:59.705Z,9.6
2023-02-17T02:46:00.377Z,9.6
2023-02-17T02:46:59.969Z,9.6
2023-02-17T02:48:00.515Z,9.6
2023-02-17T02:49:00.133Z,9.6
2023-02-17T02:49:59.729Z,9.6
2023-02-17T02:51:00.296Z,9.6
2023-02-17T02:51:59.914Z,9.6
2023-02-17T02:53:00.464Z,9.6
2023-02-17T02:54:00.052Z,9.6
2023-02-17T02:54:59.638Z,9.6
2023-02-17T02:56:00.224Z,9.6
2023-02-17T02:56:59.847Z,9.6
2023-02-17T02:58:00.387Z,9.6
2023-02-17T02:58:59.979Z,9.7
2023-02-17T03:00:00.574Z,9.7
2023-02-17T03:01:00.245Z,9.7
2023-02-17T03:01:59.803Z,9.7
2023-02-17T03:03:00.518Z,9.7
2023-02-17T03:04:00.038Z,9.8
2023-02-17T03:04:59.590Z,9.8
2023-02-17T03:06:00.175Z,9.8
2023-02-17T03:06:59.780Z,9.8
2023-02-17T03:08:00.366Z,9.8
2023-02-17T03:08:59.955Z,9.8
2023-02-17T03:10:00.558Z,9.8
2023-02-17T03:11:00.153Z,9.8
2023-02-17T03:11:59.793Z,9.9
2023-02-17T03:13:00.342Z,9.9
2023-02-17T03:13:59.928Z,9.9
2023-02-17T03:15:00.540Z,9.9
2023-02-17T03:16:00.154Z,9.9
2023-02-17T03:16:59.739Z,9.9
2023-02-17T03:18:00.339Z,10
2023-02-17T03:18:59.926Z,10
2023-02-17T03:20:00.511Z,10.1
2023-02-17T03:21:00.121Z,10.1
2023-02-17T03:21:59.720Z,10
2023-02-17T03:23:00.330Z,10
2023-02-17T03:23:59.917Z,10.1
2023-02-17T03:25:00.501Z,10.1
2023-02-17T03:26:00.121Z,10.1
2023-02-17T03:26:59.714Z,10.1
2023-02-17T03:28:00.310Z,10.1
2023-02-17T03:28:59.898Z,10.1
2023-02-17T03:30:00.532Z,10.1
2023-02-17T03:31:00.177Z,10.2
2023-02-17T03:31:59.802Z,10.1
2023-02-17T03:33:00.308Z,10.1
2023-02-17T03:33:59.901Z,10.1
2023-02-17T03:35:00.491Z,10.2
2023-02-17T03:36:00.102Z,10.2
2023-02-17T03:36:59.673Z,10.2
2023-02-17T03:38:00.269Z,10.2
2023-02-17T03:38:59.862Z,10.2
2023-02-17T03:40:00.450Z,10.2
2023-02-17T03:41:00.041Z,10.2
2023-02-17T03:41:59.615Z,10.2
2023-02-17T03:43:00.208Z,10.2
2023-02-17T03:43:59.842Z,10.2
2023-02-17T03:45:00.392Z,10.2
2023-02-17T03:46:00.068Z,10.3
2023-02-17T03:46:59.579Z,10.3
2023-02-17T03:48:00.191Z,10.3
2023-02-17T03:48:59.802Z,10.3
2023-02-17T03:50:00.367Z,10.3
2023-02-17T03:50:59.961Z,10.3
2023-02-17T03:52:00.549Z,10.4
2023-02-17T03:53:00.154Z,10.4
2023-02-17T03:53:59.780Z,10.4
2023-02-17T03:55:00.349Z,10.4
2023-02-17T03:55:59.936Z,10.4
2023-02-17T03:57:00.532Z,10.4
2023-02-17T03:58:00.124Z,10.4
2023-02-17T03:58:59.738Z,10.4
2023-02-17T04:00:00.299Z,10.3
2023-02-17T04:00:59.911Z,10.4
2023-02-17T04:02:00.474Z,10.4
2023-02-17T04:03:00.090Z,10.4
2023-02-17T04:03:59.762Z,10.4
2023-02-17T04:05:00.237Z,10.4
2023-02-17T04:05:59.857Z,10.4
2023-02-17T04:07:00.412Z,10.4
2023-02-17T04:08:00.005Z,10.4
2023-02-17T04:08:59.592Z,10.4
2023-02-17T04:10:00.199Z,10.5
2023-02-17T04:10:59.791Z,10.4
2023-02-17T04:12:00.378Z,10.4
2023-02-17T04:13:00.028Z,10.4
2023-02-17T04:14:00.548Z,10.5
2023-02-17T04:15:00.172Z,10.5
2023-02-17T04:15:59.788Z,10.5
2023-02-17T04:17:00.357Z,10.4
2023-02-17T04:17:59.949Z,10.5
2023-02-17T04:19:00.521Z,10.4
2023-02-17T04:20:00.165Z,10.5
2023-02-17T04:20:59.777Z,10.5
2023-02-17T04:22:00.332Z,10.5
2023-02-17T04:22:59.919Z,10.4
2023-02-17T04:24:00.521Z,10.5
2023-02-17T04:25:00.122Z,10.5
2023-02-17T04:25:59.746Z,10.5
2023-02-17T04:27:00.315Z,10.5
2023-02-17T04:27:59.905Z,10.5
2023-02-17T04:29:00.493Z,10.5
2023-02-17T04:30:00.194Z,10.5
2023-02-17T04:30:59.892Z,10.5
2023-02-17T04:32:00.649Z,10.5
2023-02-17T04:32:59.969Z,10.4
2023-02-17T04:34:00.687Z,10.5
2023-02-17T04:35:00.297Z,10.5
2023-02-17T04:35:59.816Z,10.5
2023-02-17T04:37:00.360Z,10.5
2023-02-17T04:37:59.997Z,10.5
2023-02-17T04:39:00.529Z,10.6
2023-02-17T04:40:00.161Z,10.6
2023-02-17T04:40:59.755Z,10.5
2023-02-17T04:42:00.345Z,10.6
2023-02-17T04:42:59.957Z,10.5
2023-02-17T04:44:00.531Z,10.6
2023-02-17T04:45:00.136Z,10.5
2023-02-17T04:45:59.730Z,10.6
2023-02-17T04:47:00.306Z,10.6
2023-02-17T04:47:59.915Z,10.6
2023-02-17T04:49:00.476Z,10.6
2023-02-17T04:50:00.113Z,10.6
2023-02-17T04:50:59.655Z,10.6
2023-02-17T04:52:00.265Z,10.5
2023-02-17T04:52:59.878Z,10.5
2023-02-17T04:54:00.434Z,10.5
2023-02-17T04:55:00.032Z,10.5
2023-02-17T04:55:59.598Z,10.5
2023-02-17T04:57:00.168Z,10.5
2023-02-17T04:57:59.782Z,10.6
2023-02-17T04:59:00.330Z,10.6
2023-02-17T04:59:59.942Z,10.6
2023-02-17T05:01:00.493Z,10.6
2023-02-17T05:02:00.106Z,10.6
2023-02-17T05:02:59.714Z,10.5
2023-02-17T05:04:00.287Z,10.6
2023-02-17T05:04:59.965Z,10.6
2023-02-17T05:06:00.462Z,10.7
2023-02-17T05:07:00.087Z,10.6
2023-02-17T05:07:59.659Z,10.6
2023-02-17T05:09:00.224Z,10.7
2023-02-17T05:09:59.844Z,10.7
2023-02-17T05:11:00.414Z,10.6
2023-02-17T05:12:00.012Z,10.7
2023-02-17T05:12:59.635Z,10.7
2023-02-17T05:14:00.168Z,10.7
2023-02-17T05:14:59.775Z,10.6
2023-02-17T05:16:00.382Z,10.7
2023-02-17T05:16:59.989Z,10.7
2023-02-17T05:17:59.589Z,10.7
2023-02-17T05:19:00.168Z,10.7
2023-02-17T05:19:59.759Z,10.6
2023-02-17T05:21:00.351Z,10.6
2023-02-17T05:21:59.938Z,10.7
2023-02-17T05:23:00.566Z,10.7
2023-02-17T05:24:00.180Z,10.6
2023-02-17T05:24:59.766Z,10.7
2023-02-17T05:26:00.354Z,10.7
2023-02-17T05:26:59.941Z,10.7
2023-02-17T05:28:00.554Z,10.7
2023-02-17T05:29:00.156Z,10.7
2023-02-17T05:29:59.778Z,10.6
2023-02-17T05:31:00.424Z,10.6
2023-02-17T05:32:00.078Z,10.6
2023-02-17T05:32:59.570Z,10.6
2023-02-17T05:34:00.193Z,10.5
2023-02-17T05:34:59.795Z,10.6
2023-02-17T05:36:00.406Z,10.6
2023-02-17T05:37:00.000Z,10.7
2023-02-17T05:37:59.584Z,10.6
2023-02-17T05:39:00.158Z,10.7
2023-02-17T05:39:59.774Z,10.6
2023-02-17T05:41:00.350Z,10.7
2023-02-17T05:41:59.944Z,10.6
2023-02-17T05:43:00.514Z,10.6
2023-02-17T05:44:00.147Z,10.7
2023-02-17T05:44:59.733Z,10.7
2023-02-17T05:46:00.325Z,10.7
2023-02-17T05:46:59.912Z,10.7
2023-02-17T05:48:00.502Z,10.7
2023-02-17T05:49:00.112Z,10.7
2023-02-17T05:49:59.709Z,10.7
2023-02-17T05:51:00.300Z,10.7
2023-02-17T05:51:59.901Z,10.7
2023-02-17T05:53:00.477Z,10.7
2023-02-17T05:54:00.135Z,10.7
2023-02-17T05:54:59.721Z,10.7
2023-02-17T05:56:00.318Z,10.7
2023-02-17T05:56:59.906Z,10.7
2023-02-17T05:58:00.505Z,10.7
2023-02-17T05:59:00.116Z,10.7
2023-02-17T05:59:59.723Z,10.7
2023-02-17T06:01:00.279Z,10.7
2023-02-17T06:01:59.871Z,10.6
2023-02-17T06:03:00.480Z,10.7
2023-02-17T06:04:00.106Z,10.6
2023-02-17T06:04:59.758Z,10.6
2023-02-17T06:06:00.235Z,10.5
2023-02-17T06:06:59.848Z,10.6
2023-02-17T06:08:00.406Z,10.6
2023-02-17T06:08:59.998Z,10.6
2023-02-17T06:09:59.583Z,10.6
2023-02-17T06:11:00.189Z,10.6
2023-02-17T06:11:59.800Z,10.6
2023-02-17T06:13:00.368Z,10.6
2023-02-17T06:14:00.018Z,10.6
2023-02-17T06:15:00.566Z,10.6
2023-02-17T06:16:00.234Z,10.6
2023-02-17T06:17:01.032Z,10.5
2023-02-17T06:18:00.271Z,10.6
2023-02-17T06:18:59.871Z,10.6
2023-02-17T06:20:00.521Z,10.6
2023-02-17T06:21:00.150Z,10.6
2023-02-17T06:21:59.673Z,10.6
2023-02-17T06:23:00.258Z,10.7
2023-02-17T06:23:59.854Z,10.7
2023-02-17T06:25:00.603Z,10.6
2023-02-17T06:26:00.124Z,10.7
2023-02-17T06:26:59.667Z,10.7
2023-02-17T06:28:00.279Z,10.6
2023-02-17T06:28:59.872Z,10.6
2023-02-17T06:30:00.519Z,10.7
2023-02-17T06:31:00.145Z,10.6
2023-02-17T06:31:59.762Z,10.6
2023-02-17T06:33:00.250Z,10.6
2023-02-17T06:33:59.851Z,10.7
2023-02-17T06:35:00.420Z,10.6
2023-02-17T06:36:00.071Z,10.6
2023-02-17T06:36:59.614Z,10.6
2023-02-17T06:38:00.328Z,10.6
2023-02-17T06:38:59.842Z,10.6
2023-02-17T06:40:00.414Z,10.7
2023-02-17T06:41:00.014Z,10.7
2023-02-17T06:41:59.596Z,10.7
2023-02-17T06:43:00.169Z,10.7
2023-02-17T06:43:59.817Z,10.7
2023-02-17T06:45:00.358Z,10.7
2023-02-17T06:45:59.987Z,10.7
2023-02-17T06:47:00.539Z,10.7
2023-02-17T06:48:00.161Z,10.6
2023-02-17T06:48:59.750Z,10.6
2023-02-17T06:50:00.337Z,10.7
2023-02-17T06:50:59.925Z,10.7
2023-02-17T06:52:00.506Z,10.7
2023-02-17T06:53:00.117Z,10.7
2023-02-17T06:53:59.715Z,10.6
2023-02-17T06:55:00.294Z,10.6
2023-02-17T06:55:59.890Z,10.6
2023-02-17T06:57:00.475Z,10.4
2023-02-17T06:58:00.090Z,10.4
2023-02-17T06:58:59.665Z,10.4
2023-02-17T07:00:00.251Z,10.5
2023-02-17T07:00:59.847Z,10.4
2023-02-17T07:02:02.217Z,10.3
2023-02-17T07:03:00.155Z,10.3
2023-02-17T07:03:59.672Z,10.2
2023-02-17T07:05:00.259Z,10.2
2023-02-17T07:05:59.849Z,10.1
2023-02-17T07:07:00.431Z,10.1
2023-02-17T07:08:00.043Z,10
2023-02-17T07:08:59.607Z,9.8
2023-02-17T07:10:00.196Z,9.8
2023-02-17T07:10:59.790Z,9.8
2023-02-17T07:12:00.375Z,9.8
2023-02-17T07:12:59.988Z,9.8
2023-02-17T07:13:59.586Z,9.8
2023-02-17T07:15:00.126Z,9.8
2023-02-17T07:15:59.856Z,9.8
2023-02-17T07:17:00.296Z,9.9
2023-02-17T07:17:59.923Z,9.9
2023-02-17T07:19:00.464Z,9.9
2023-02-17T07:20:00.087Z,9.9
2023-02-17T07:20:59.636Z,9.9
2023-02-17T07:22:00.217Z,9.9
2023-02-17T07:22:59.827Z,9.9
2023-02-17T07:24:00.402Z,9.9
2023-02-17T07:25:00.002Z,10
2023-02-17T07:25:59.583Z,10
2023-02-17T07:27:00.150Z,10
2023-02-17T07:27:59.733Z,10
2023-02-17T07:29:00.338Z,10
2023-02-17T07:29:59.957Z,10
2023-02-17T07:31:00.562Z,10
2023-02-17T07:32:00.311Z,10
2023-02-17T07:32:59.752Z,10.1
2023-02-17T07:34:00.360Z,10
2023-02-17T07:34:59.957Z,10.1
2023-02-17T07:36:00.519Z,10.1
2023-02-17T07:37:00.108Z,10.2
2023-02-17T07:37:59.693Z,10.2
2023-02-17T07:39:00.304Z,10.2
2023-02-17T07:39:59.901Z,10.3
2023-02-17T07:41:00.491Z,10.3
2023-02-17T07:42:00.102Z,10.3
2023-02-17T07:42:59.696Z,10.3
2023-02-17T07:44:00.276Z,10.4
2023-02-17T07:44:59.865Z,10.3
2023-02-17T07:46:00.492Z,10.4
2023-02-17T07:47:00.124Z,10.3
2023-02-17T07:47:59.693Z,10.3
2023-02-17T07:49:00.241Z,10.4
2023-02-17T07:49:59.841Z,10.4
2023-02-17T07:51:00.403Z,10.5
2023-02-17T07:52:00.027Z,10.5
2023-02-17T07:52:59.587Z,10.4
2023-02-17T07:54:00.145Z,10.5
2023-02-17T07:54:59.743Z,10.5
2023-02-17T07:56:00.326Z,10.5
2023-02-17T07:56:59.935Z,10.6
2023-02-17T07:58:00.493Z,10.6
2023-02-17T07:59:00.117Z,10.6
2023-02-17T07:59:59.713Z,10.7
2023-02-17T08:01:00.300Z,10.6
2023-02-17T08:01:59.937Z,10.6
2023-02-17T08:03:00.470Z,10.6
2023-02-17T08:04:00.181Z,10.6
2023-02-17T08:04:59.643Z,10.6
2023-02-17T08:06:00.222Z,10.7
2023-02-17T08:06:59.839Z,10.7
2023-02-17T08:08:00.400Z,10.7
2023-02-17T08:08:59.998Z,10.7
2023-02-17T08:09:59.583Z,10.8
2023-02-17T08:11:00.159Z,10.8
2023-02-17T08:11:59.778Z,10.8
2023-02-17T08:13:00.345Z,10.8
2023-02-17T08:13:59.948Z,10.8
2023-02-17T08:14:59.576Z,10.8
2023-02-17T08:16:00.111Z,10.8
2023-02-17T08:16:59.813Z,10.8
2023-02-17T08:18:00.305Z,10.8
2023-02-17T08:18:59.902Z,10.8
2023-02-17T08:20:05.973Z,10.8
2023-02-17T08:21:00.034Z,10.8
2023-02-17T08:21:59.625Z,10.8
2023-02-17T08:23:00.230Z,10.8
2023-02-17T08:23:59.830Z,10.9
2023-02-17T08:25:00.400Z,10.9
2023-02-17T08:25:59.988Z,10.9
2023-02-17T08:26:59.570Z,10.9
2023-02-17T08:28:00.185Z,10.9
2023-02-17T08:28:59.778Z,10.9
2023-02-17T08:30:00.590Z,10.9
2023-02-17T08:31:00.101Z,10.9
2023-02-17T08:31:59.716Z,10.9
2023-02-17T08:33:00.180Z,11
2023-02-17T08:33:59.785Z,11
2023-02-17T08:35:00.377Z,10.9
2023-02-17T08:35:59.998Z,11
2023-02-17T08:36:59.562Z,11
2023-02-17T08:38:00.171Z,11
2023-02-17T08:38:59.756Z,11
2023-02-17T08:40:00.373Z,11.1
2023-02-17T08:41:00.023Z,11.1
2023-02-17T08:42:00.567Z,11
2023-02-17T08:43:01.739Z,11.1
2023-02-17T08:43:59.777Z,11
2023-02-17T08:45:00.380Z,11.1
2023-02-17T08:45:59.976Z,11
2023-02-17T08:46:59.558Z,11.1
2023-02-17T08:48:00.137Z,11.1
2023-02-17T08:48:59.776Z,11
2023-02-17T08:50:00.356Z,11.1
2023-02-17T08:50:59.948Z,11.1
2023-02-17T08:52:00.567Z,11.1
2023-02-17T08:53:00.162Z,11.1
2023-02-17T08:53:59.765Z,11.1
2023-02-17T08:55:00.321Z,11.2
2023-02-17T08:55:59.928Z,11.2
2023-02-17T08:57:00.510Z,11.3
2023-02-17T08:58:00.191Z,11.2
2023-02-17T08:58:59.764Z,11.3
2023-02-17T09:00:00.303Z,11.3
2023-02-17T09:01:00.014Z,11.3
2023-02-17T09:02:00.512Z,11.3
2023-02-17T09:03:00.120Z,11.3
2023-02-17T09:03:59.706Z,11.4
2023-02-17T09:05:00.315Z,11.4
2023-02-17T09:05:59.927Z,11.3
2023-02-17T09:07:00.532Z,11.3
2023-02-17T09:08:00.218Z,11.4
2023-02-17T09:08:59.769Z,11.4
2023-02-17T09:10:00.328Z,11.4
2023-02-17T09:10:59.918Z,11.5
2023-02-17T09:12:00.525Z,11.4
2023-02-17T09:13:00.145Z,11.5
2023-02-17T09:13:59.736Z,11.5
2023-02-17T09:15:00.307Z,11.5
2023-02-17T09:15:59.970Z,11.6
2023-02-17T09:17:00.490Z,11.6
2023-02-17T09:18:00.113Z,11.6
2023-02-17T09:18:59.649Z,11.5
2023-02-17T09:20:00.234Z,11.5
2023-02-17T09:20:59.898Z,11.6
2023-02-17T09:22:00.433Z,11.7
2023-02-17T09:23:00.020Z,11.7
2023-02-17T09:23:59.674Z,11.7
2023-02-17T09:25:00.206Z,11.8
2023-02-17T09:25:59.798Z,11.7
2023-02-17T09:27:00.413Z,11.7
2023-02-17T09:28:00.098Z,11.7
2023-02-17T09:28:59.593Z,11.7
2023-02-17T09:30:00.275Z,11.7
2023-02-17T09:30:59.917Z,11.7
2023-02-17T09:32:00.613Z,11.8
2023-02-17T09:33:00.104Z,11.8
2023-02-17T09:33:59.666Z,11.9
2023-02-17T09:35:00.279Z,11.8
2023-02-17T09:35:59.883Z,11.8
2023-02-17T09:37:00.457Z,11.8
2023-02-17T09:38:00.147Z,11.9
2023-02-17T09:38:59.744Z,11.9
2023-02-17T09:40:00.363Z,12
2023-02-17T09:40:59.894Z,12
2023-02-17T09:42:00.517Z,12
2023-02-17T09:43:00.202Z,12
2023-02-17T09:43:59.693Z,12
2023-02-17T09:45:00.321Z,12
2023-02-17T09:46:00.015Z,12.1
2023-02-17T09:47:02.344Z,12.1
2023-02-17T09:48:00.049Z,12.1
2023-02-17T09:48:59.642Z,12.3
2023-02-17T09:50:00.296Z,12.2
2023-02-17T09:50:59.943Z,12.2
2023-02-17T09:52:00.476Z,12.2
2023-02-17T09:53:00.143Z,12.2
2023-02-17T09:53:59.664Z,12.2
2023-02-17T09:55:00.306Z,12.3
2023-02-17T09:55:59.950Z,12.2
2023-02-17T09:57:00.474Z,12.3
2023-02-17T09:58:00.104Z,12.3
2023-02-17T09:58:59.638Z,12.3
2023-02-17T10:00:00.316Z,12.3
2023-02-17T10:00:59.881Z,12.3
2023-02-17T10:02:00.457Z,12.3
2023-02-17T10:03:00.157Z,12.3
2023-02-17T10:03:59.766Z,12.3
2023-02-17T10:05:00.336Z,12.3
2023-02-17T10:05:59.977Z,12.3
2023-02-17T10:07:00.560Z,12.2
2023-02-17T10:08:00.190Z,12.3
2023-02-17T10:08:59.793Z,12.3
2023-02-17T10:10:00.335Z,12.3
2023-02-17T10:10:59.945Z,12.4
2023-02-17T10:12:00.620Z,12.5
2023-02-17T10:13:00.316Z,12.5
2023-02-17T10:13:59.802Z,12.4
2023-02-17T10:15:00.450Z,12.4
2023-02-17T10:16:00.096Z,12.5
2023-02-17T10:16:59.679Z,12.4
2023-02-17T10:18:00.146Z,12.5
2023-02-17T10:18:59.769Z,12.4
2023-02-17T10:20:00.347Z,12.4
2023-02-17T10:21:00.076Z,12.5
2023-02-17T10:22:00.513Z,12.5
2023-02-17T10:23:00.131Z,12.5
2023-02-17T10:23:59.804Z,12.7
2023-02-17T10:25:00.313Z,12.6
2023-02-17T10:25:59.970Z,12.4
2023-02-17T10:27:00.530Z,12.6
2023-02-17T10:28:00.182Z,12.6
2023-02-17T10:28:59.729Z,12.6
2023-02-17T10:30:00.348Z,12.6
2023-02-17T10:31:00.095Z,12.6
2023-02-17T10:32:00.748Z,12.6
2023-02-17T10:33:00.407Z,12.7
2023-02-17T10:33:59.771Z,12.7
2023-02-17T10:35:00.355Z,12.7
2023-02-17T10:35:59.988Z,12.7
2023-02-17T10:37:00.588Z,12.7
2023-02-17T10:38:00.313Z,12.9
2023-02-17T10:38:59.768Z,12.9
2023-02-17T10:40:00.336Z,12.9
2023-02-17T10:40:59.928Z,12.8
2023-02-17T10:42:00.516Z,12.9
2023-02-17T10:43:00.123Z,12.8
2023-02-17T10:43:59.747Z,12.9
2023-02-17T10:45:00.328Z,13
2023-02-17T10:45:59.928Z,13.1
2023-02-17T10:47:00.515Z,13
2023-02-17T10:48:00.122Z,13.1
2023-02-17T10:48:59.704Z,13.1
2023-02-17T10:50:00.281Z,13
2023-02-17T10:50:59.873Z,12.9
2023-02-17T10:52:00.452Z,12.9
2023-02-17T10:53:00.090Z,12.9
2023-02-17T10:53:59.643Z,13
2023-02-17T10:55:00.246Z,13
2023-02-17T10:55:59.875Z,12.9
2023-02-17T10:57:00.456Z,12.9
2023-02-17T10:58:00.088Z,12.9
2023-02-17T10:58:59.637Z,12.9
2023-02-17T11:00:00.255Z,12.8
2023-02-17T11:00:59.881Z,12.9
2023-02-17T11:02:00.426Z,12.9
2023-02-17T11:03:00.021Z,12.9
2023-02-17T11:03:59.637Z,13
2023-02-17T11:05:00.186Z,13.1
2023-02-17T11:05:59.771Z,13
2023-02-17T11:07:00.355Z,13.1
2023-02-17T11:07:59.941Z,13
2023-02-17T11:09:00.560Z,13
2023-02-17T11:10:00.182Z,12.9
2023-02-17T11:10:59.766Z,12.8
2023-02-17T11:12:00.367Z,12.8
2023-02-17T11:12:59.976Z,12.8
2023-02-17T11:15:00.102Z,12.8
2023-02-17T11:15:59.760Z,13
2023-02-17T11:17:00.325Z,13
2023-02-17T11:17:59.910Z,13.1
2023-02-17T11:19:00.493Z,13.1
2023-02-17T11:20:00.243Z,13.2
2023-02-17T11:20:59.726Z,13.3
2023-02-17T11:22:00.323Z,13.3
2023-02-17T11:22:59.955Z,13.4
2023-02-17T11:24:00.494Z,13.4
2023-02-17T11:25:00.117Z,13.5
2023-02-17T11:25:59.715Z,13.5
2023-02-17T11:27:00.301Z,13.5
2023-02-17T11:27:59.920Z,13.4
2023-02-17T11:29:00.464Z,13.4
2023-02-17T11:30:00.165Z,13.4
2023-02-17T11:30:59.669Z,13.6
2023-02-17T11:32:00.339Z,13.7
2023-02-17T11:32:59.862Z,13.6
2023-02-17T11:34:00.444Z,13.6
2023-02-17T11:35:00.056Z,13.7
2023-02-17T11:35:59.609Z,13.6
2023-02-17T11:37:00.185Z,13.6
2023-02-17T11:37:59.776Z,13.5
2023-02-17T11:39:00.349Z,13.7
2023-02-17T11:39:59.962Z,13.7
2023-02-17T11:41:00.521Z,13.6
2023-02-17T11:42:00.139Z,13.5
2023-02-17T11:42:59.749Z,13.5
2023-02-17T11:44:00.316Z,13.5
2023-02-17T11:44:59.923Z,13.3
2023-02-17T11:46:00.954Z,13.3
2023-02-17T11:46:59.647Z,13.3
2023-02-17T11:48:00.257Z,13.3
2023-02-17T11:48:59.853Z,13.4
2023-02-17T11:50:00.441Z,13.5
2023-02-17T11:51:00.027Z,13.4
2023-02-17T11:51:59.610Z,13.4
2023-02-17T11:53:00.186Z,13.3
2023-02-17T11:53:59.769Z,13.4
2023-02-17T11:55:00.368Z,13.4
2023-02-17T11:55:59.951Z,13.4
2023-02-17T11:57:00.535Z,13.5
2023-02-17T11:58:00.121Z,13.6
2023-02-17T11:58:59.706Z,13.6
2023-02-17T12:00:00.310Z,13.5
2023-02-17T12:00:59.900Z,13.6
2023-02-17T12:02:00.472Z,13.5
2023-02-17T12:03:00.104Z,13.5
2023-02-17T12:03:59.671Z,13.5
2023-02-17T12:05:00.291Z,13.5
2023-02-17T12:05:59.891Z,13.5
2023-02-17T12:07:00.479Z,13.5
2023-02-17T12:08:00.096Z,13.6
2023-02-17T12:08:59.652Z,13.7
2023-02-17T12:10:00.282Z,13.5
2023-02-17T12:10:59.872Z,13.5
2023-02-17T12:12:00.461Z,13.5
2023-02-17T12:13:00.062Z,13.5
2023-02-17T12:13:59.634Z,13.5
2023-02-17T12:15:00.237Z,13.5
2023-02-17T12:15:59.851Z,13.6
2023-02-17T12:17:00.414Z,13.6
2023-02-17T12:18:00.039Z,13.6
2023-02-17T12:18:59.589Z,13.6
2023-02-17T12:20:00.201Z,13.6
2023-02-17T12:20:59.806Z,13.6
2023-02-17T12:22:00.367Z,13.7
2023-02-17T12:22:59.955Z,13.7
2023-02-17T12:24:00.542Z,13.6
2023-02-17T12:25:00.129Z,13.7
2023-02-17T12:25:59.732Z,13.7
2023-02-17T12:27:00.299Z,13.7
2023-02-17T12:27:59.911Z,13.7
2023-02-17T12:29:00.473Z,13.6
2023-02-17T12:30:00.088Z,13.6
2023-02-17T12:30:59.858Z,13.6
2023-02-17T12:32:00.441Z,13.7
2023-02-17T12:32:59.922Z,13.7
2023-02-17T12:34:00.482Z,13.8
2023-02-17T12:35:00.088Z,13.8
2023-02-17T12:35:59.817Z,13.8
2023-02-17T12:37:00.274Z,13.7
2023-02-17T12:37:59.884Z,13.7
2023-02-17T12:39:00.452Z,13.6
2023-02-17T12:40:00.039Z,13.7
2023-02-17T12:40:59.623Z,13.6
2023-02-17T12:42:00.199Z,13.6
2023-02-17T12:42:59.810Z,13.5
2023-02-17T12:44:00.378Z,13.5
2023-02-17T12:44:59.962Z,13.6
2023-02-17T12:46:00.564Z,13.6
2023-02-17T12:47:00.183Z,13.6
2023-02-17T12:47:59.785Z,13.6
2023-02-17T12:49:00.366Z,13.6
2023-02-17T12:49:59.962Z,13.6
2023-02-17T12:51:00.550Z,13.6
2023-02-17T12:52:00.164Z,13.5
2023-02-17T12:52:59.780Z,13.6
2023-02-17T12:54:00.361Z,13.5
2023-02-17T12:54:59.949Z,13.5
2023-02-17T12:56:00.535Z,13.5
2023-02-17T12:57:00.121Z,13.6
2023-02-17T12:57:59.703Z,13.5
2023-02-17T12:59:00.295Z,13.5
2023-02-17T12:59:59.911Z,13.6
2023-02-17T13:01:00.476Z,13.6
2023-02-17T13:02:00.099Z,13.6
2023-02-17T13:02:59.663Z,13.6
2023-02-17T13:04:00.239Z,13.6
2023-02-17T13:04:59.853Z,13.6
2023-02-17T13:06:00.447Z,13.5
2023-02-17T13:07:00.040Z,13.6
2023-02-17T13:07:59.649Z,13.6
2023-02-17T13:09:00.216Z,13.6
2023-02-17T13:09:59.802Z,13.6
2023-02-17T13:11:00.413Z,13.6
2023-02-17T13:11:59.998Z,13.6
2023-02-17T13:12:59.574Z,13.6
2023-02-17T13:14:00.159Z,13.6
2023-02-17T13:14:59.770Z,13.7
2023-02-17T13:16:00.407Z,13.7
2023-02-17T13:16:59.976Z,13.7
2023-02-17T13:17:59.627Z,13.6
2023-02-17T13:19:00.134Z,13.7
2023-02-17T13:19:59.718Z,13.6
2023-02-17T13:21:00.294Z,13.6
2023-02-17T13:21:59.882Z,13.6
2023-02-17T13:23:00.482Z,13.6
2023-02-17T13:24:00.118Z,13.6
2023-02-17T13:24:59.642Z,13.7
2023-02-17T13:26:00.215Z,13.7
2023-02-17T13:26:59.800Z,13.6
2023-02-17T13:28:00.378Z,13.6
2023-02-17T13:28:59.994Z,13.6
2023-02-17T13:30:00.624Z,13.7